createdAt,value
2022-12-29T00:00:13.654Z,1.50
2022-12-29T00:03:15.330Z,1.60
2022-12-29T00:06:16.982Z,1.67
2022-12-29T00:09:18.574Z,2.10
2022-12-29T00:12:20.080Z,2.70
2022-12-29T00:15:39.994Z,3.23
2022-12-29T00:18:41.590Z,1.90
2022-12-29T00:22:01.586Z,1.70
2022-12-29T00:25:22.357Z,1.88
2022-12-29T00:28:42.533Z,2.10
2022-12-29T00:32:16.360Z,2.58
2022-12-29T00:35:39.486Z,1.77
2022-12-29T00:39:01.127Z,1.83
2022-12-29T00:42:39.025Z,2.00
2022-12-29T00:45:42.203Z,1.48
2022-12-29T00:49:02.411Z,2.03
2022-12-29T00:52:05.900Z,1.50
2022-12-29T00:55:07.646Z,1.60
2022-12-29T00:58:09.148Z,1.85
2022-12-29T01:01:10.958Z,1.48
2022-12-29T01:04:12.749Z,1.70
2022-12-29T01:07:14.311Z,2.20
2022-12-29T01:10:16.199Z,1.50
2022-12-29T01:13:17.731Z,1.45
2022-12-29T01:16:19.494Z,1.40
2022-12-29T01:19:21.127Z,1.50
2022-12-29T01:22:22.615Z,1.80
2022-12-29T01:25:24.206Z,1.50
2022-12-29T01:28:26.338Z,1.58
2022-12-29T01:34:29.827Z,1.58
2022-12-29T01:37:31.348Z,1.55
2022-12-29T01:40:32.925Z,1.40
2022-12-29T01:43:44.970Z,1.70
2022-12-29T01:46:46.987Z,1.58
2022-12-29T01:49:48.539Z,1.42
2022-12-29T01:53:17.415Z,1.48
2022-12-29T01:56:19.926Z,1.35
2022-12-29T01:59:23.968Z,1.58
2022-12-29T02:02:25.627Z,1.60
2022-12-29T02:05:29.280Z,1.50
2022-12-29T02:08:30.788Z,1.85
2022-12-29T02:11:32.291Z,1.80
2022-12-29T02:14:34.882Z,1.83
2022-12-29T02:17:41.074Z,1.67
2022-12-29T02:21:01.002Z,1.45
2022-12-29T02:24:24.950Z,1.92
2022-12-29T02:28:08.269Z,1.50
2022-12-29T02:31:42.333Z,1.63
2022-12-29T02:34:59.076Z,1.60
2022-12-29T02:38:12.257Z,1.70
2022-12-29T02:41:19.562Z,1.80
2022-12-29T02:44:28.075Z,1.83
2022-12-29T02:47:44.934Z,1.98
2022-12-29T02:50:54.179Z,1.60
2022-12-29T02:54:14.307Z,1.75
2022-12-29T02:57:36.151Z,1.40
2022-12-29T03:00:39.152Z,1.40
2022-12-29T03:04:11.614Z,1.52
2022-12-29T03:07:27.642Z,1.50
2022-12-29T03:11:00.502Z,1.88
2022-12-29T03:14:25.802Z,1.50
2022-12-29T03:17:41.760Z,2.25
2022-12-29T03:20:48.757Z,1.67
2022-12-29T03:23:51.091Z,1.90
2022-12-29T03:29:56.002Z,1.60
2022-12-29T03:32:59.952Z,2.30
2022-12-29T03:36:04.190Z,2.17
2022-12-29T03:39:15.164Z,1.70
2022-12-29T03:42:19.867Z,1.50
2022-12-29T03:45:24.256Z,2.60
2022-12-29T03:48:25.807Z,1.60
2022-12-29T03:51:27.380Z,1.70
2022-12-29T03:54:28.929Z,1.90
2022-12-29T03:57:30.439Z,1.70
2022-12-29T04:00:32.019Z,1.92
2022-12-29T04:03:33.691Z,2.45
2022-12-29T04:06:36.132Z,1.65
2022-12-29T04:09:37.691Z,1.73
2022-12-29T04:12:39.244Z,1.70
2022-12-29T04:15:40.831Z,1.85
2022-12-29T04:18:42.463Z,2.17
2022-12-29T04:21:43.991Z,2.30
2022-12-29T04:24:45.533Z,1.80
2022-12-29T04:27:47.018Z,2.47
2022-12-29T04:30:48.831Z,2.17
2022-12-29T04:33:50.428Z,3.40
2022-12-29T04:36:51.998Z,3.15
2022-12-29T04:39:53.592Z,1.90
2022-12-29T04:42:55.114Z,2.55
2022-12-29T04:45:56.706Z,2.10
2022-12-29T04:48:58.294Z,1.88
2022-12-29T04:51:59.793Z,1.80
2022-12-29T04:55:01.446Z,2.25
2022-12-29T04:58:02.980Z,1.90
2022-12-29T05:01:04.494Z,2.10
2022-12-29T05:04:06.068Z,2.25
2022-12-29T05:07:07.595Z,1.83
2022-12-29T05:10:09.349Z,2.10
2022-12-29T05:13:10.855Z,2.20
2022-12-29T05:16:12.470Z,1.90
2022-12-29T05:19:14.071Z,2.05
2022-12-29T05:22:16.070Z,1.80
2022-12-29T05:25:19.991Z,1.80
2022-12-29T05:28:21.558Z,1.83
2022-12-29T05:31:23.149Z,3.15
2022-12-29T05:34:24.830Z,1.88
2022-12-29T05:37:26.348Z,2.38
2022-12-29T05:40:27.884Z,2.22
2022-12-29T05:43:29.431Z,2.42
2022-12-29T05:46:31.145Z,1.77
2022-12-29T05:49:33.342Z,2.10
2022-12-29T05:52:35.192Z,2.15
2022-12-29T05:55:36.711Z,2.08
2022-12-29T05:58:38.279Z,1.90
2022-12-29T06:01:39.861Z,2.17
2022-12-29T06:04:41.439Z,1.88
2022-12-29T06:07:43.099Z,2.03
2022-12-29T06:10:44.708Z,2.35
2022-12-29T06:13:46.218Z,2.13
2022-12-29T06:16:47.803Z,2.00
2022-12-29T06:19:49.375Z,2.10
2022-12-29T06:22:50.897Z,1.97
2022-12-29T06:25:52.444Z,2.05
2022-12-29T06:28:53.996Z,2.20
2022-12-29T06:31:59.043Z,2.00
2022-12-29T06:35:00.711Z,2.40
2022-12-29T06:38:02.220Z,2.10
2022-12-29T06:41:03.834Z,1.98
2022-12-29T06:44:05.412Z,2.30
2022-12-29T06:47:06.962Z,2.65
2022-12-29T06:50:09.176Z,2.67
2022-12-29T06:53:10.697Z,2.30
2022-12-29T06:56:12.223Z,2.17
2022-12-29T06:59:13.824Z,1.80
2022-12-29T07:02:17.708Z,2.10
2022-12-29T07:05:19.313Z,2.10
2022-12-29T07:08:21.082Z,1.77
2022-12-29T07:11:22.621Z,1.98
2022-12-29T07:14:24.179Z,2.42
2022-12-29T07:17:25.764Z,1.95
2022-12-29T07:20:27.467Z,2.97
2022-12-29T07:23:29.054Z,2.17
2022-12-29T07:26:36.148Z,2.47
2022-12-29T07:29:38.655Z,5.95
2022-12-29T07:32:40.147Z,1.88
2022-12-29T07:35:41.672Z,2.00
2022-12-29T07:38:43.341Z,1.80
2022-12-29T07:41:44.905Z,2.63
2022-12-29T07:44:46.474Z,2.10
2022-12-29T07:47:51.079Z,2.03
2022-12-29T07:50:53.074Z,2.33
2022-12-29T07:53:54.590Z,2.35
2022-12-29T07:56:56.161Z,1.75
2022-12-29T07:59:57.687Z,1.80
2022-12-29T08:02:59.277Z,1.85
2022-12-29T08:06:00.855Z,1.77
2022-12-29T08:09:11.094Z,1.98
2022-12-29T08:12:16.498Z,1.88
2022-12-29T08:15:18.136Z,2.03
2022-12-29T08:18:19.643Z,2.45
2022-12-29T08:21:21.169Z,1.83
2022-12-29T08:24:22.715Z,2.10
2022-12-29T08:27:24.227Z,1.70
2022-12-29T08:30:25.785Z,1.70
2022-12-29T08:33:27.392Z,1.95
2022-12-29T08:36:28.958Z,1.70
2022-12-29T08:39:30.531Z,1.60
2022-12-29T08:42:32.480Z,1.77
2022-12-29T08:45:34.307Z,2.22
2022-12-29T08:48:35.848Z,1.70
2022-12-29T08:51:37.735Z,1.80
2022-12-29T08:54:39.285Z,1.58
2022-12-29T08:57:40.831Z,1.48
2022-12-29T09:00:43.146Z,1.85
2022-12-29T09:07:06.668Z,1.92
2022-12-29T09:10:08.385Z,1.77
2022-12-29T09:13:10.128Z,1.85
2022-12-29T09:16:11.759Z,2.13
2022-12-29T09:19:13.351Z,2.05
2022-12-29T09:22:14.869Z,1.88
2022-12-29T09:25:16.596Z,2.38
2022-12-29T09:28:18.102Z,1.90
2022-12-29T09:31:19.670Z,1.90
2022-12-29T09:34:21.294Z,1.52
2022-12-29T09:37:22.883Z,2.17
2022-12-29T09:40:31.070Z,1.98
2022-12-29T09:43:49.599Z,2.20
2022-12-29T09:46:52.088Z,1.90
2022-12-29T09:50:33.381Z,2.05
2022-12-29T09:53:40.323Z,2.10
2022-12-29T09:56:41.874Z,1.70
2022-12-29T09:59:43.789Z,2.10
2022-12-29T10:03:21.859Z,2.20
2022-12-29T10:06:23.350Z,2.03
2022-12-29T10:09:27.814Z,2.30
2022-12-29T10:12:48.195Z,1.90
2022-12-29T10:15:58.642Z,2.25
2022-12-29T10:19:33.443Z,2.55
2022-12-29T10:22:50.246Z,2.30
2022-12-29T10:25:51.780Z,1.70
2022-12-29T10:28:58.059Z,1.90
2022-12-29T10:32:01.172Z,2.30
2022-12-29T10:35:22.546Z,2.92
2022-12-29T10:38:30.201Z,2.00
2022-12-29T10:41:38.106Z,2.00
2022-12-29T10:44:39.659Z,1.92
2022-12-29T10:47:52.871Z,2.10
2022-12-29T10:51:01.440Z,1.90
2022-12-29T10:54:12.441Z,2.50
2022-12-29T10:57:37.618Z,2.30
2022-12-29T11:00:39.178Z,2.25
2022-12-29T11:03:46.797Z,4.65
2022-12-29T11:06:48.364Z,2.30
2022-12-29T11:09:49.921Z,1.90
2022-12-29T11:12:58.781Z,5.47
2022-12-29T11:16:01.939Z,2.33
2022-12-29T11:19:03.661Z,9.52
2022-12-29T11:22:26.156Z,2.50
2022-12-29T11:28:31.592Z,2.10
2022-12-29T11:31:43.385Z,2.63
2022-12-29T11:34:44.986Z,2.25
2022-12-29T11:37:46.514Z,2.20
2022-12-29T11:40:48.067Z,2.67
2022-12-29T11:43:49.654Z,3.67
2022-12-29T11:46:52.200Z,1.98
2022-12-29T11:49:55.044Z,2.13
2022-12-29T11:53:05.682Z,2.33
2022-12-29T11:56:09.833Z,2.05
2022-12-29T11:59:32.751Z,2.15
2022-12-29T12:02:42.479Z,2.38
2022-12-29T12:05:56.879Z,2.35
2022-12-29T12:09:04.407Z,2.40
2022-12-29T12:12:05.960Z,2.20
2022-12-29T12:15:13.751Z,2.42
2022-12-29T12:18:31.607Z,1.92
2022-12-29T12:21:33.665Z,2.60
2022-12-29T12:24:35.037Z,2.42
2022-12-29T12:27:43.273Z,2.10
2022-12-29T12:30:46.947Z,2.35
2022-12-29T12:33:50.396Z,3.05
2022-12-29T12:36:58.977Z,2.70
2022-12-29T12:40:25.733Z,2.90
2022-12-29T12:43:34.707Z,2.53
2022-12-29T12:47:10.408Z,2.45
2022-12-29T12:50:23.792Z,2.53
2022-12-29T12:56:53.242Z,2.65
2022-12-29T13:00:24.438Z,2.25
2022-12-29T13:03:46.231Z,2.10
2022-12-29T13:07:14.108Z,2.38
2022-12-29T13:10:18.567Z,2.95
2022-12-29T13:13:25.844Z,2.28
2022-12-29T13:16:32.754Z,2.00
2022-12-29T13:19:46.442Z,2.63
2022-12-29T13:23:03.425Z,2.20
2022-12-29T13:26:10.946Z,2.05
2022-12-29T13:29:32.789Z,3.08
2022-12-29T13:32:43.281Z,2.60
2022-12-29T13:36:13.869Z,2.17
2022-12-29T13:39:22.387Z,2.45
2022-12-29T13:42:23.920Z,2.60
2022-12-29T13:45:26.303Z,2.65
2022-12-29T13:49:00.328Z,2.17
2022-12-29T13:52:19.504Z,2.20
2022-12-29T13:55:50.730Z,2.60
2022-12-29T13:59:04.748Z,2.63
2022-12-29T14:02:17.371Z,2.20
2022-12-29T14:05:18.913Z,2.10
2022-12-29T14:08:21.371Z,1.73
2022-12-29T14:11:25.800Z,1.98
2022-12-29T14:14:29.868Z,2.28
2022-12-29T14:17:31.406Z,2.65
2022-12-29T14:20:33.051Z,2.42
2022-12-29T14:23:42.304Z,2.58
2022-12-29T14:26:43.851Z,3.05
2022-12-29T14:29:46.545Z,3.17
2022-12-29T14:33:02.250Z,2.80
2022-12-29T14:36:19.485Z,3.67
2022-12-29T14:39:41.294Z,2.83
2022-12-29T14:42:42.964Z,2.53
2022-12-29T14:45:44.529Z,2.45
2022-12-29T14:48:46.094Z,2.20
2022-12-29T14:51:48.380Z,2.75
2022-12-29T14:58:02.729Z,2.58
2022-12-29T15:01:04.349Z,2.80
2022-12-29T15:04:18.441Z,2.20
2022-12-29T15:07:20.021Z,2.20
2022-12-29T15:10:23.909Z,2.58
2022-12-29T15:13:33.315Z,2.22
2022-12-29T15:16:37.643Z,3.58
2022-12-29T15:19:39.609Z,2.65
2022-12-29T15:22:49.863Z,3.55
2022-12-29T15:25:59.372Z,2.25
2022-12-29T15:29:01.054Z,2.22
2022-12-29T15:32:16.553Z,2.30
2022-12-29T15:35:29.151Z,3.20
2022-12-29T15:42:01.467Z,2.50
2022-12-29T15:45:11.371Z,2.97
2022-12-29T15:48:22.318Z,2.22
2022-12-29T15:51:32.056Z,2.55
2022-12-29T15:54:33.766Z,4.78
2022-12-29T15:57:39.389Z,3.42
2022-12-29T16:00:40.976Z,2.97
2022-12-29T16:03:42.625Z,2.72
2022-12-29T16:06:58.731Z,2.03
2022-12-29T16:10:01.301Z,2.30
2022-12-29T16:13:22.923Z,2.67
2022-12-29T16:16:32.691Z,2.97
2022-12-29T16:19:38.518Z,2.67
2022-12-29T16:22:41.054Z,2.88
2022-12-29T16:25:42.616Z,3.47
2022-12-29T16:28:44.138Z,3.40
2022-12-29T16:32:01.580Z,4.50
2022-12-29T16:35:46.758Z,3.17
2022-12-29T16:38:48.250Z,3.63
2022-12-29T16:41:50.807Z,2.97
2022-12-29T16:44:53.478Z,4.25
2022-12-29T16:48:07.222Z,4.88
2022-12-29T16:51:20.971Z,3.97
2022-12-29T16:54:35.827Z,3.25
2022-12-29T16:57:37.370Z,6.47
2022-12-29T17:00:38.927Z,9.07
2022-12-29T17:03:42.317Z,12.57
2022-12-29T17:06:43.891Z,12.25
2022-12-29T17:09:45.519Z,12.40
2022-12-29T17:12:48.147Z,13.43
2022-12-29T17:15:49.690Z,16.40
2022-12-29T17:18:51.299Z,20.60
2022-12-29T17:21:52.818Z,16.07
2022-12-29T17:24:55.327Z,17.87
2022-12-29T17:28:01.415Z,17.20
2022-12-29T17:31:03.814Z,14.35
2022-12-29T17:34:05.378Z,13.38
2022-12-29T17:37:25.380Z,13.23
2022-12-29T17:40:29.086Z,13.95
2022-12-29T17:43:36.775Z,15.15
2022-12-29T17:46:38.757Z,30.63
2022-12-29T17:49:40.373Z,13.20
2022-12-29T17:52:42.926Z,11.10
2022-12-29T17:55:44.492Z,9.82
2022-12-29T17:58:46.131Z,10.80
2022-12-29T18:01:48.346Z,8.65
2022-12-29T18:04:49.962Z,7.15
2022-12-29T18:07:52.149Z,33.83
2022-12-29T18:10:54.000Z,17.83
2022-12-29T18:13:55.632Z,6.00
2022-12-29T18:16:57.234Z,13.13
2022-12-29T18:19:58.750Z,7.60
2022-12-29T18:23:00.305Z,5.87
2022-12-29T18:26:12.579Z,9.03
2022-12-29T18:29:14.077Z,4.38
2022-12-29T18:32:15.968Z,4.43
2022-12-29T18:35:26.419Z,3.50
2022-12-29T18:38:28.023Z,7.78
2022-12-29T18:41:29.893Z,3.72
2022-12-29T18:44:31.607Z,4.03
2022-12-29T18:47:33.153Z,2.83
2022-12-29T18:50:34.680Z,3.15
2022-12-29T18:53:37.898Z,2.00
2022-12-29T18:56:39.493Z,2.55
2022-12-29T18:59:41.218Z,2.90
2022-12-29T19:02:43.578Z,3.05
2022-12-29T19:08:47.146Z,1.88
2022-12-29T19:11:48.694Z,1.60
2022-12-29T19:14:50.251Z,1.63
2022-12-29T19:18:15.977Z,1.75
2022-12-29T19:21:13.749Z,2.38
2022-12-29T19:24:15.341Z,1.97
2022-12-29T19:27:16.827Z,1.50
2022-12-29T19:30:19.443Z,1.80
2022-12-29T19:33:21.631Z,1.80
2022-12-29T19:36:23.341Z,2.47
2022-12-29T19:39:24.929Z,5.43
2022-12-29T19:42:26.467Z,2.27
2022-12-29T19:45:27.976Z,1.10
2022-12-29T19:48:29.492Z,1.20
2022-12-29T19:51:31.096Z,1.37
2022-12-29T19:54:32.652Z,1.67
2022-12-29T19:57:34.206Z,1.60
2022-12-29T20:00:35.764Z,1.70
2022-12-29T20:03:38.596Z,1.43
2022-12-29T20:06:40.154Z,1.83
2022-12-29T20:09:41.660Z,2.00
2022-12-29T20:12:43.246Z,1.30
2022-12-29T20:15:44.797Z,1.37
2022-12-29T20:18:46.907Z,2.00
2022-12-29T20:21:48.930Z,3.10
2022-12-29T20:24:52.129Z,2.70
2022-12-29T20:27:57.889Z,3.08
2022-12-29T20:31:04.341Z,4.10
2022-12-29T20:34:05.979Z,4.35
2022-12-29T20:37:07.545Z,4.20
2022-12-29T20:40:09.112Z,5.17
2022-12-29T20:43:10.643Z,7.07
2022-12-29T20:46:18.153Z,6.20
2022-12-29T20:49:21.925Z,4.60
2022-12-29T20:52:23.455Z,2.43
2022-12-29T20:55:24.984Z,1.93
2022-12-29T20:58:26.634Z,1.87
2022-12-29T21:01:28.365Z,1.73
2022-12-29T21:04:56.924Z,1.73
2022-12-29T21:07:51.474Z,2.03
2022-12-29T21:10:53.038Z,1.23
2022-12-29T21:13:54.574Z,1.30
2022-12-29T21:16:56.178Z,1.43
2022-12-29T21:19:57.825Z,1.07
2022-12-29T21:23:00.542Z,1.80
2022-12-29T21:26:02.135Z,1.15
2022-12-29T21:29:04.112Z,1.27
2022-12-29T21:32:06.642Z,1.25
2022-12-29T21:35:09.022Z,1.25
2022-12-29T21:38:10.611Z,1.27
2022-12-29T21:41:14.946Z,1.30
2022-12-29T21:44:34.981Z,0.90
2022-12-29T21:47:59.342Z,1.00
2022-12-29T21:51:30.409Z,1.50
2022-12-29T21:54:50.914Z,1.80
2022-12-29T21:58:11.081Z,1.10
2022-12-29T22:01:32.095Z,1.30
2022-12-29T22:04:52.321Z,1.83
2022-12-29T22:08:12.426Z,1.60
2022-12-29T22:11:50.716Z,1.10
2022-12-29T22:14:52.242Z,1.20
2022-12-29T22:17:54.292Z,1.13
2022-12-29T22:20:55.860Z,1.10
2022-12-29T22:23:57.467Z,1.40
2022-12-29T22:26:59.269Z,1.20
2022-12-29T22:30:00.877Z,1.40
2022-12-29T22:33:02.607Z,1.30
2022-12-29T22:36:04.817Z,1.25
2022-12-29T22:39:06.378Z,1.50
2022-12-29T22:42:08.233Z,1.23
2022-12-29T22:45:10.068Z,1.60
2022-12-29T22:48:11.622Z,2.45
2022-12-29T22:51:13.889Z,2.20
2022-12-29T22:54:15.505Z,1.42
2022-12-29T22:57:17.113Z,1.77
2022-12-29T23:00:18.837Z,1.80
2022-12-29T23:03:20.888Z,1.70
2022-12-29T23:06:22.944Z,1.70
2022-12-29T23:09:24.499Z,2.25
2022-12-29T23:12:27.636Z,2.03
2022-12-29T23:15:29.235Z,2.75
2022-12-29T23:18:30.996Z,3.10
2022-12-29T23:21:32.585Z,1.50
2022-12-29T23:24:34.136Z,2.17
2022-12-29T23:27:35.936Z,2.00
2022-12-29T23:30:37.495Z,1.95
2022-12-29T23:33:39.145Z,2.60
2022-12-29T23:36:41.097Z,1.83
2022-12-29T23:39:42.649Z,1.90
2022-12-29T23:42:44.318Z,2.40
2022-12-29T23:45:50.667Z,1.80
2022-12-29T23:48:52.874Z,2.40
2022-12-29T23:51:54.471Z,2.08
2022-12-29T23:54:56.317Z,1.70
2022-12-29T23:57:57.932Z,2.50
